Golden Triangle Regional Airport Columbus, W Point, Starkville US
ICAO: KGTR
IATA: GTR
Category: Medium
Scheduled Services: Yes

Elevation: 264 ft
TransAlt. 18000 ft.

Airport Communications:
COLUMBUS APP/DEP:135.6
ATIS:126.375
AWOS 3:126.375
COLUMBUS CLNC DEL:126.25
CTAF:120.025
GND/CLNC DEL:135.375
TWR:120.025
UNICOM:122.8

KGTR Zoom In..

If Map Doesn't Load, Click Here

Runways:

(A) RW 18 length 8003 ft width 150 ft
ILS 110.70 / hdg 182

(B) RW 36 length 8003 ft width 150 ft
ILS 111.15 / hdg 2

Location; KGTR
Day. 21 / Time. 15.56 Zulu
* Altimeter: 30.10
* Temperature: 31° c. 87.8°f.
* Wind from: VRB° Speed 03 kn.
Dewpoint: 24° c.
Visibility: 10 Statute Miles.
Clouds: Scattered 2600 ft.

KGTR 211556Z VRB03KT 10SM SCT026 31/24 A3010 RMK AO2 SLP193 T03060244


Wind From VRB°
Speed 03 kn.

 
 
jpsmedia.com for Web Design worldairports.se 2018   terms of use